Time;durP1;ratioP1;P1;durP2;ratioP2;P2;SDS_P1;SDS_P2;PMS_P1;PMS_P2;Temp;Humidity;BMP_temperature;BMP_pressure;BME280_temperature;BME280_humidity;BME280_pressure;Samples;Min_cycle;Max_cycle;Signal;HPM_P1;HPM_P2
2023/08/20 00:00:18;;;;;;;0.10;0.00;;;18.40;99.90;;;;;;5104199;28;20469;-92
2023/08/20 00:02:46;;;;;;;0.10;0.00;;;18.30;99.90;;;;;;5107250;28;20211;-92
2023/08/20 00:05:12;;;;;;;0.10;0.00;;;18.30;99.90;;;;;;5112043;28;20422;-92
2023/08/20 00:07:39;;;;;;;0.10;0.00;;;18.20;99.90;;;;;;5102334;28;20829;-91
2023/08/20 00:10:06;;;;;;;0.10;0.00;;;18.10;99.90;;;;;;5095493;28;20509;-91
2023/08/20 00:12:32;;;;;;;0.10;0.00;;;18.10;99.90;;;;;;5119775;27;20464;-91
2023/08/20 00:15:04;;;;;;;0.10;0.00;;;18.10;99.90;;;;;;5080568;28;20485;-91
2023/08/20 00:17:40;;;;;;;0.10;0.10;;;18.00;99.90;;;;;;5093573;28;20185;-92
2023/08/20 00:20:14;;;;;;;0.10;0.00;;;18.00;99.90;;;;;;5104734;28;20533;-92
2023/08/20 00:22:42;;;;;;;0.10;0.10;;;17.80;99.90;;;;;;5073522;28;20623;-91
2023/08/20 00:25:08;;;;;;;0.10;0.00;;;17.80;99.90;;;;;;5078766;28;20481;-92
2023/08/20 00:27:34;;;;;;;0.10;0.00;;;17.90;99.90;;;;;;5092014;28;22522;-91
2023/08/20 00:30:00;;;;;;;0.10;0.10;;;17.80;99.90;;;;;;5098224;28;20483;-91
2023/08/20 00:32:25;;;;;;;0.10;0.10;;;17.80;99.90;;;;;;5088984;28;20275;-91
2023/08/20 00:34:51;;;;;;;0.10;0.10;;;17.80;99.90;;;;;;5111198;28;20632;-93
2023/08/20 00:37:17;;;;;;;0.10;0.10;;;17.70;99.90;;;;;;5111252;28;20180;-91
2023/08/20 00:39:43;;;;;;;0.10;0.00;;;17.80;99.90;;;;;;5105542;28;20185;-90
2023/08/20 00:42:08;;;;;;;0.10;0.10;;;17.80;99.90;;;;;;5102124;28;20443;-92
2023/08/20 00:44:34;;;;;;;0.10;0.00;;;17.70;99.90;;;;;;5092215;28;20773;-92
2023/08/20 00:47:04;;;;;;;0.10;0.00;;;17.70;99.90;;;;;;5094817;28;20185;-92
2023/08/20 00:49:31;;;;;;;0.10;0.00;;;17.70;99.90;;;;;;5108675;28;20446;-92
2023/08/20 00:51:58;;;;;;;0.10;0.10;;;17.70;99.90;;;;;;5110647;28;20446;-92
2023/08/20 00:54:24;;;;;;;0.10;0.10;;;17.60;99.90;;;;;;5111243;28;20866;-91
2023/08/20 00:56:50;;;;;;;0.10;0.10;;;17.60;99.90;;;;;;5108078;28;20473;-92
2023/08/20 00:59:17;;;;;;;0.10;0.00;;;17.60;99.90;;;;;;5109218;28;20433;-91
2023/08/20 01:01:43;;;;;;;0.10;0.10;;;17.50;99.90;;;;;;5107894;28;20430;-93
2023/08/20 01:04:09;;;;;;;0.10;0.00;;;17.50;99.90;;;;;;5089875;28;20445;-93
2023/08/20 01:07:05;;;;;;;0.10;0.10;;;17.50;99.90;;;;;;5101412;28;20796;-92
2023/08/20 01:09:50;;;;;;;0.10;0.00;;;17.50;99.90;;;;;;5090399;28;20216;-92
2023/08/20 01:12:17;;;;;;;0.10;0.10;;;17.50;99.90;;;;;;5080304;28;20450;-91
2023/08/20 01:14:42;;;;;;;0.10;0.10;;;17.50;99.90;;;;;;5097676;28;20785;-91
2023/08/20 01:17:08;;;;;;;0.10;0.00;;;17.40;99.90;;;;;;5111639;28;20475;-91
2023/08/20 01:19:34;;;;;;;0.10;0.00;;;17.60;99.90;;;;;;5115256;27;20196;-92
2023/08/20 01:22:15;;;;;;;0.10;0.00;;;17.50;99.90;;;;;;5097766;28;20241;-92
2023/08/20 01:24:59;;;;;;;0.10;0.10;;;17.50;99.90;;;;;;5091281;28;20509;-91
2023/08/20 01:27:56;;;;;;;0.10;0.10;;;17.50;99.90;;;;;;5121589;27;20442;-91
2023/08/20 01:30:22;;;;;;;0.10;0.10;;;17.50;99.90;;;;;;5099506;28;20526;-92
2023/08/20 01:32:50;;;;;;;0.10;0.10;;;17.50;99.90;;;;;;5102104;28;20535;-92
2023/08/20 01:35:16;;;;;;;0.10;0.10;;;17.60;99.90;;;;;;5113355;28;20188;-92
2023/08/20 01:37:42;;;;;;;0.10;0.10;;;17.70;99.90;;;;;;5106394;28;20994;-91
2023/08/20 01:40:10;;;;;;;0.10;0.00;;;17.60;99.90;;;;;;5107553;28;20442;-92
2023/08/20 01:42:36;;;;;;;0.10;0.00;;;17.50;99.90;;;;;;5113773;28;20687;-92
2023/08/20 01:45:02;;;;;;;0.10;0.00;;;17.50;99.90;;;;;;5093336;28;20532;-91
2023/08/20 01:47:27;;;;;;;0.10;0.00;;;17.50;99.90;;;;;;5111912;28;20512;-92
2023/08/20 01:49:53;;;;;;;0.10;0.00;;;17.60;99.90;;;;;;5109500;28;20220;-91
2023/08/20 01:52:18;;;;;;;0.10;0.10;;;17.40;99.90;;;;;;5097010;28;20295;-92
2023/08/20 01:54:44;;;;;;;0.10;0.00;;;17.40;99.90;;;;;;5096064;28;20653;-92
2023/08/20 01:57:09;;;;;;;0.10;0.10;;;17.40;99.90;;;;;;5095129;28;20271;-93
2023/08/20 01:59:35;;;;;;;0.10;0.00;;;17.40;99.90;;;;;;5108590;28;20725;-91
2023/08/20 02:02:01;;;;;;;0.10;0.00;;;17.40;99.90;;;;;;5092287;28;20560;-92
2023/08/20 02:04:27;;;;;;;0.10;0.10;;;17.40;99.90;;;;;;5110440;28;21017;-91
2023/08/20 02:06:52;;;;;;;0.10;0.10;;;17.50;99.90;;;;;;5101995;28;20188;-92
2023/08/20 02:09:19;;;;;;;0.10;0.10;;;17.40;99.90;;;;;;5103273;28;20189;-91
2023/08/20 02:11:45;;;;;;;0.10;0.10;;;17.50;99.90;;;;;;5100302;28;20196;-92
2023/08/20 02:14:10;;;;;;;0.10;0.10;;;17.40;99.90;;;;;;5107677;28;20444;-91
2023/08/20 02:16:36;;;;;;;0.10;0.00;;;17.40;99.90;;;;;;5103356;28;20249;-91
2023/08/20 02:19:02;;;;;;;0.10;0.00;;;17.40;99.90;;;;;;5110932;27;20702;-91
2023/08/20 02:21:28;;;;;;;0.10;0.10;;;17.40;99.90;;;;;;5118201;27;20476;-92
2023/08/20 02:23:54;;;;;;;0.10;0.10;;;17.40;99.90;;;;;;5117469;27;20950;-92
2023/08/20 02:26:19;;;;;;;0.10;0.10;;;17.40;99.90;;;;;;5106899;28;20447;-91
2023/08/20 02:28:45;;;;;;;0.10;0.00;;;17.50;99.90;;;;;;5091653;28;20196;-92
2023/08/20 02:31:10;;;;;;;0.10;0.10;;;17.40;99.90;;;;;;5107807;27;20234;-92
2023/08/20 02:33:36;;;;;;;0.10;0.00;;;17.40;99.90;;;;;;5094369;28;20192;-91
2023/08/20 02:36:03;;;;;;;0.10;0.10;;;17.40;99.90;;;;;;5111566;28;20554;-92
2023/08/20 02:38:29;;;;;;;0.10;0.00;;;17.40;99.90;;;;;;5093615;28;20275;-92
2023/08/20 02:40:54;;;;;;;0.10;0.10;;;17.40;99.90;;;;;;5091114;28;20550;-92
2023/08/20 02:43:20;;;;;;;0.10;0.10;;;17.40;99.90;;;;;;5092849;28;20188;-92
2023/08/20 02:45:45;;;;;;;0.10;0.00;;;17.30;99.90;;;;;;5110320;28;20191;-92
2023/08/20 02:48:12;;;;;;;0.10;0.00;;;17.30;99.90;;;;;;5089576;27;20189;-92
2023/08/20 02:50:37;;;;;;;0.10;0.10;;;17.30;99.90;;;;;;5102116;28;20707;-91
2023/08/20 02:53:03;;;;;;;0.10;0.10;;;17.40;99.90;;;;;;5117309;27;20445;-92
2023/08/20 02:55:29;;;;;;;0.10;0.10;;;17.40;99.90;;;;;;5097001;28;20600;-93
2023/08/20 02:57:55;;;;;;;0.10;0.10;;;17.30;99.90;;;;;;5092368;28;20203;-92
2023/08/20 03:00:21;;;;;;;0.10;0.00;;;17.40;99.90;;;;;;5112018;28;20443;-93
2023/08/20 03:02:46;;;;;;;0.10;0.00;;;17.30;99.90;;;;;;5107613;28;20267;-92
2023/08/20 03:05:12;;;;;;;0.07;0.00;;;17.40;99.90;;;;;;5082369;27;20238;-92
2023/08/20 03:07:37;;;;;;;0.10;0.00;;;17.30;99.90;;;;;;5113312;27;20188;-93
2023/08/20 03:10:03;;;;;;;0.10;0.10;;;17.40;99.90;;;;;;5103195;28;20204;-90
2023/08/20 03:12:29;;;;;;;0.10;0.10;;;17.40;99.90;;;;;;5118294;27;20573;-93
2023/08/20 03:14:55;;;;;;;0.10;0.00;;;17.40;99.90;;;;;;5090814;28;20249;-93
2023/08/20 03:17:21;;;;;;;0.10;0.10;;;17.40;99.90;;;;;;5108868;27;20500;-92
2023/08/20 03:19:55;;;;;;;0.10;0.10;;;17.40;99.90;;;;;;5104669;28;20439;-93
2023/08/20 03:22:20;;;;;;;0.10;0.00;;;17.40;99.90;;;;;;5081616;27;20236;-92
2023/08/20 03:24:46;;;;;;;0.10;0.10;;;17.40;99.90;;;;;;5114028;27;20953;-93
2023/08/20 03:27:11;;;;;;;0.10;0.10;;;17.40;99.90;;;;;;5116872;27;20252;-93
2023/08/20 03:29:37;;;;;;;0.10;0.00;;;17.30;99.90;;;;;;5108503;27;20234;-92
2023/08/20 03:32:02;;;;;;;0.10;0.10;;;17.30;99.90;;;;;;5103184;27;20191;-91
2023/08/20 03:34:28;;;;;;;0.10;0.00;;;17.30;99.90;;;;;;5111012;28;20279;-92
2023/08/20 03:36:53;;;;;;;0.10;0.00;;;17.40;99.90;;;;;;5119149;27;20218;-93
2023/08/20 03:39:19;;;;;;;0.10;0.00;;;17.40;99.90;;;;;;5132663;27;20186;-93
2023/08/20 03:41:45;;;;;;;0.10;0.00;;;17.40;99.90;;;;;;5115345;27;20656;-91
2023/08/20 03:44:10;;;;;;;0.10;0.00;;;17.30;99.90;;;;;;5108285;28;20656;-92
2023/08/20 03:46:36;;;;;;;0.00;0.00;;;17.40;99.90;;;;;;5100745;28;20178;-92
2023/08/20 03:49:01;;;;;;;0.10;0.10;;;17.30;99.90;;;;;;5086603;28;20211;-93
2023/08/20 03:51:27;;;;;;;0.10;0.00;;;17.30;99.90;;;;;;5112735;28;20965;-92
2023/08/20 03:53:52;;;;;;;0.10;0.10;;;17.20;99.90;;;;;;5108727;28;20658;-93
2023/08/20 03:56:18;;;;;;;0.10;0.10;;;17.10;99.90;;;;;;5113736;27;20203;-92
2023/08/20 03:58:43;;;;;;;0.10;0.00;;;17.20;99.90;;;;;;5115978;27;20196;-92
2023/08/20 04:01:09;;;;;;;0.10;0.10;;;17.20;99.90;;;;;;5100274;28;20234;-91
2023/08/20 04:03:34;;;;;;;0.10;0.10;;;17.10;99.90;;;;;;5109368;28;20188;-92
2023/08/20 04:05:59;;;;;;;0.10;0.10;;;17.10;99.90;;;;;;5095822;28;20656;-93
2023/08/20 04:08:25;;;;;;;0.10;0.10;;;17.10;99.90;;;;;;5106539;28;20184;-92
2023/08/20 04:10:52;;;;;;;0.10;0.10;;;17.10;99.90;;;;;;5110868;27;20739;-91
2023/08/20 04:13:18;;;;;;;0.10;0.00;;;17.10;99.90;;;;;;5120880;27;20202;-93
2023/08/20 04:15:44;;;;;;;0.10;0.10;;;17.10;99.90;;;;;;5107766;27;20439;-92
2023/08/20 04:18:09;;;;;;;0.10;0.10;;;17.10;99.90;;;;;;5119403;27;20434;-92
2023/08/20 04:20:36;;;;;;;0.10;0.10;;;17.20;99.90;;;;;;5118304;27;20192;-92
2023/08/20 04:23:02;;;;;;;0.10;0.10;;;17.10;99.90;;;;;;5124738;27;20253;-92
2023/08/20 04:25:27;;;;;;;0.10;0.10;;;17.10;99.90;;;;;;5107908;28;20942;-92
2023/08/20 04:27:53;;;;;;;0.10;0.10;;;17.10;99.90;;;;;;5102144;28;20179;-93
2023/08/20 04:30:19;;;;;;;0.10;0.10;;;17.20;99.90;;;;;;5106970;28;20228;-92
2023/08/20 04:32:45;;;;;;;0.10;0.07;;;17.20;99.90;;;;;;5114500;28;20179;-93
2023/08/20 04:35:10;;;;;;;0.10;0.10;;;17.20;99.90;;;;;;5099680;28;20567;-93
2023/08/20 04:37:36;;;;;;;0.10;0.10;;;17.20;99.90;;;;;;5111032;28;20180;-93
2023/08/20 04:40:05;;;;;;;0.10;0.10;;;17.20;99.90;;;;;;5100936;28;20698;-93
2023/08/20 04:42:31;;;;;;;0.10;0.10;;;17.20;99.90;;;;;;5109888;28;20180;-93
2023/08/20 04:44:57;;;;;;;0.10;0.10;;;17.20;99.90;;;;;;5089288;28;20446;-92
2023/08/20 04:47:23;;;;;;;0.10;0.10;;;17.20;99.90;;;;;;5113577;28;20437;-93
2023/08/20 04:49:48;;;;;;;0.10;0.10;;;17.20;99.90;;;;;;5113645;28;20201;-93
2023/08/20 04:52:14;;;;;;;0.10;0.00;;;17.20;99.90;;;;;;5115612;28;20648;-93
2023/08/20 04:54:39;;;;;;;0.10;0.10;;;17.20;99.90;;;;;;5124262;27;20201;-93
2023/08/20 04:57:05;;;;;;;0.10;0.10;;;17.20;99.90;;;;;;5097739;27;20242;-93
2023/08/20 04:59:30;;;;;;;0.10;0.00;;;17.30;99.90;;;;;;5096241;27;20668;-93
2023/08/20 05:01:56;;;;;;;0.10;0.10;;;17.20;99.90;;;;;;5117427;27;20274;-93
2023/08/20 05:04:22;;;;;;;0.10;0.10;;;17.20;99.90;;;;;;5108697;27;20265;-92
2023/08/20 05:06:48;;;;;;;0.10;0.10;;;17.20;99.90;;;;;;5108303;27;20493;-93
2023/08/20 05:09:15;;;;;;;0.10;0.10;;;17.30;99.90;;;;;;5100890;28;20934;-93
2023/08/20 05:11:41;;;;;;;0.10;0.07;;;17.30;99.90;;;;;;5107728;27;20285;-93
2023/08/20 05:14:07;;;;;;;0.10;0.00;;;17.30;99.90;;;;;;5098696;28;20937;-93
2023/08/20 05:16:32;;;;;;;0.10;0.07;;;17.40;99.90;;;;;;5107435;27;20196;-93
2023/08/20 05:18:58;;;;;;;0.10;0.00;;;17.30;99.90;;;;;;5098046;28;20237;-92
2023/08/20 05:21:23;;;;;;;0.10;0.10;;;17.30;99.90;;;;;;5095153;28;20211;-93
2023/08/20 05:23:49;;;;;;;0.10;0.00;;;17.30;99.90;;;;;;5115455;27;20628;-92
2023/08/20 05:26:14;;;;;;;0.10;0.10;;;17.30;99.90;;;;;;5111640;27;20299;-93
2023/08/20 05:28:40;;;;;;;0.10;0.10;;;17.30;99.90;;;;;;5116766;28;20248;-92
2023/08/20 05:31:05;;;;;;;0.10;0.10;;;17.30;99.90;;;;;;5110753;28;20764;-95
2023/08/20 05:33:31;;;;;;;0.10;0.00;;;17.30;99.90;;;;;;5091430;28;20185;-94
2023/08/20 05:35:59;;;;;;;0.10;0.10;;;17.30;99.90;;;;;;5121855;27;20238;-93
2023/08/20 05:38:25;;;;;;;0.10;0.10;;;17.20;99.90;;;;;;5098921;28;20173;-91
2023/08/20 05:40:50;;;;;;;0.10;0.10;;;17.20;99.90;;;;;;5109401;27;20454;-94
2023/08/20 05:43:16;;;;;;;0.10;0.10;;;17.10;99.90;;;;;;5104824;28;20185;-93
2023/08/20 05:45:41;;;;;;;0.10;0.10;;;17.10;99.90;;;;;;5094140;28;20187;-92
2023/08/20 05:48:08;;;;;;;0.10;0.10;;;17.20;99.90;;;;;;5110994;27;20193;-93
2023/08/20 05:50:34;;;;;;;0.10;0.10;;;17.20;99.90;;;;;;5105449;28;20245;-94
2023/08/20 05:53:00;;;;;;;0.10;0.00;;;17.20;99.90;;;;;;5101792;28;20447;-92
2023/08/20 05:55:26;;;;;;;0.10;0.10;;;17.20;99.90;;;;;;5107471;28;20271;-92
2023/08/20 05:57:51;;;;;;;0.10;0.10;;;17.10;99.90;;;;;;5108923;28;20529;-93
2023/08/20 06:00:17;;;;;;;0.10;0.10;;;17.20;99.90;;;;;;5094443;28;20176;-93
2023/08/20 06:02:43;;;;;;;0.10;0.00;;;17.20;99.90;;;;;;5112808;28;20192;-95
2023/08/20 06:05:09;;;;;;;0.10;0.10;;;17.20;99.90;;;;;;5114646;27;20445;-92
2023/08/20 06:07:35;;;;;;;0.10;0.00;;;17.30;99.90;;;;;;5100375;27;20177;-94
2023/08/20 06:10:01;;;;;;;0.10;0.00;;;17.30;99.90;;;;;;5115535;28;20553;-92
2023/08/20 06:12:26;;;;;;;0.10;0.10;;;17.40;99.90;;;;;;5113728;27;20192;-94
2023/08/20 06:14:52;;;;;;;0.10;0.00;;;17.40;99.90;;;;;;5085132;28;20173;-92
2023/08/20 06:17:17;;;;;;;0.10;0.10;;;17.50;99.90;;;;;;5109424;28;20241;-93
2023/08/20 06:19:44;;;;;;;0.10;0.00;;;17.50;99.90;;;;;;5111211;28;20188;-93
2023/08/20 06:22:10;;;;;;;0.10;0.10;;;17.50;99.90;;;;;;5108763;28;20187;-94
2023/08/20 06:24:36;;;;;;;0.10;0.00;;;17.60;99.90;;;;;;5106637;27;20430;-92
2023/08/20 06:27:01;;;;;;;0.10;0.00;;;17.60;99.90;;;;;;5102293;28;20177;-93
2023/08/20 06:29:27;;;;;;;0.10;0.10;;;17.60;99.90;;;;;;5109632;27;20626;-93
2023/08/20 06:31:52;;;;;;;0.10;0.10;;;17.70;99.90;;;;;;5120603;27;20255;-95
2023/08/20 06:34:18;;;;;;;0.10;0.00;;;17.70;99.90;;;;;;5100888;27;20188;-94
2023/08/20 06:36:43;;;;;;;0.10;0.10;;;17.80;99.90;;;;;;5115138;27;20248;-93
2023/08/20 06:39:09;;;;;;;0.10;0.00;;;17.90;99.90;;;;;;5106363;28;20249;-95
2023/08/20 06:41:35;;;;;;;0.10;0.10;;;17.90;99.90;;;;;;5109736;27;21142;-93
2023/08/20 06:44:02;;;;;;;0.10;0.00;;;17.90;99.90;;;;;;5098613;28;20184;-93
2023/08/20 06:46:28;;;;;;;0.10;0.00;;;17.90;99.90;;;;;;5107844;28;20521;-91
2023/08/20 06:48:54;;;;;;;0.10;0.00;;;17.90;99.90;;;;;;5107155;28;20459;-92
2023/08/20 06:51:21;;;;;;;0.10;0.00;;;18.10;99.90;;;;;;5106226;28;20239;-95
2023/08/20 06:53:47;;;;;;;0.10;0.00;;;18.10;99.90;;;;;;5089065;28;20177;-94
2023/08/20 06:56:12;;;;;;;0.10;0.00;;;18.10;99.90;;;;;;5106397;28;20466;-93
2023/08/20 06:58:40;;;;;;;0.10;0.10;;;18.30;99.90;;;;;;5110584;28;20192;-93
2023/08/20 07:01:08;;;;;;;0.10;0.00;;;18.30;99.90;;;;;;5086094;28;20204;-93
2023/08/20 07:03:38;;;;;;;0.10;0.00;;;18.40;99.90;;;;;;5091573;28;20578;-92
2023/08/20 07:06:04;;;;;;;0.10;0.00;;;18.40;99.90;;;;;;5112468;28;20449;-93
2023/08/20 07:08:30;;;;;;;0.07;0.00;;;18.40;99.90;;;;;;5112531;28;20418;-93
2023/08/20 07:10:55;;;;;;;0.10;0.00;;;18.40;99.90;;;;;;5092422;28;20680;-93
2023/08/20 07:13:21;;;;;;;0.10;0.00;;;18.50;99.90;;;;;;5111923;27;20196;-91
2023/08/20 07:15:47;;;;;;;0.10;0.00;;;18.60;99.90;;;;;;5092678;28;20177;-93
2023/08/20 07:18:14;;;;;;;0.10;0.00;;;18.50;99.90;;;;;;5113189;28;20430;-91
2023/08/20 07:20:43;;;;;;;0.10;0.00;;;18.60;99.90;;;;;;5106766;28;20173;-93
2023/08/20 07:23:09;;;;;;;0.10;0.00;;;18.70;99.90;;;;;;5100463;27;20498;-92
2023/08/20 07:25:38;;;;;;;0.10;0.10;;;18.70;99.90;;;;;;5093707;28;20997;-93
2023/08/20 07:28:05;;;;;;;0.10;0.00;;;18.80;99.90;;;;;;5098542;28;20941;-94
2023/08/20 07:30:31;;;;;;;0.07;0.00;;;18.90;99.90;;;;;;5103482;27;20477;-93
2023/08/20 07:32:57;;;;;;;0.10;0.10;;;19.00;99.90;;;;;;5112307;27;20457;-93
2023/08/20 07:35:23;;;;;;;0.10;0.00;;;19.00;99.90;;;;;;5106304;27;20446;-94
2023/08/20 07:37:48;;;;;;;0.10;0.00;;;18.90;99.90;;;;;;5095697;28;20418;-94
2023/08/20 07:40:14;;;;;;;0.10;0.00;;;18.90;99.90;;;;;;5092731;28;20208;-92
2023/08/20 07:42:43;;;;;;;0.10;0.00;;;19.10;99.90;;;;;;5076880;28;20181;-94
2023/08/20 07:45:09;;;;;;;0.00;0.00;;;19.20;99.90;;;;;;5082547;28;20192;-93
2023/08/20 07:47:38;;;;;;;0.10;0.00;;;19.30;99.90;;;;;;5109366;27;20418;-92
2023/08/20 07:50:05;;;;;;;0.10;0.00;;;19.10;99.90;;;;;;5134454;27;20546;-93
2023/08/20 07:52:32;;;;;;;0.10;0.00;;;19.10;99.90;;;;;;5122600;27;20458;-94
2023/08/20 07:54:57;;;;;;;0.10;0.00;;;19.10;99.90;;;;;;5119803;27;20442;-93
2023/08/20 07:57:23;;;;;;;0.10;0.00;;;19.30;99.90;;;;;;5095597;27;20975;-92
2023/08/20 07:59:49;;;;;;;0.10;0.00;;;19.60;99.90;;;;;;5101165;27;20188;-93
2023/08/20 08:02:15;;;;;;;0.10;0.00;;;19.90;99.90;;;;;;5098156;28;20181;-94
2023/08/20 08:04:41;;;;;;;0.07;0.00;;;20.20;99.90;;;;;;5113042;27;20812;-94
2023/08/20 08:07:07;;;;;;;0.10;0.00;;;20.00;99.90;;;;;;5105283;27;20535;-93
2023/08/20 08:09:32;;;;;;;0.07;0.00;;;20.00;99.90;;;;;;5109008;27;20450;-93
2023/08/20 08:11:59;;;;;;;0.10;0.00;;;19.90;99.90;;;;;;5105211;27;20230;-93
2023/08/20 08:14:25;;;;;;;0.10;0.00;;;19.70;99.90;;;;;;5100689;28;20173;-94
2023/08/20 08:16:51;;;;;;;0.10;0.00;;;20.10;99.90;;;;;;5107610;28;20925;-94
2023/08/20 08:19:17;;;;;;;0.00;0.00;;;20.20;99.90;;;;;;5111140;28;20426;-94
2023/08/20 08:21:44;;;;;;;0.10;0.00;;;20.60;99.90;;;;;;5108347;28;20449;-93
2023/08/20 08:24:10;;;;;;;0.10;0.00;;;20.40;99.90;;;;;;5102554;28;20964;-88
2023/08/20 08:26:36;;;;;;;0.10;0.00;;;20.30;99.90;;;;;;5098133;28;20529;-89
2023/08/20 08:29:03;;;;;;;0.07;0.00;;;20.20;99.90;;;;;;5102133;28;21167;-90
2023/08/20 08:31:29;;;;;;;0.10;0.00;;;20.30;99.90;;;;;;5103815;28;20234;-89
2023/08/20 08:33:55;;;;;;;0.10;0.00;;;20.30;99.90;;;;;;5106933;28;20454;-90
2023/08/20 08:36:21;;;;;;;0.10;0.00;;;20.40;99.90;;;;;;5090187;28;20196;-89
2023/08/20 08:38:46;;;;;;;0.10;0.00;;;20.70;99.90;;;;;;5103081;28;20207;-90
2023/08/20 08:41:13;;;;;;;0.07;0.00;;;20.40;99.90;;;;;;5109504;28;20184;-89
2023/08/20 08:43:39;;;;;;;0.10;0.00;;;20.70;99.90;;;;;;5087513;28;20184;-89
2023/08/20 08:46:08;;;;;;;0.10;0.00;;;20.90;99.90;;;;;;5106141;28;20989;-89
2023/08/20 08:48:35;;;;;;;0.10;0.00;;;20.80;99.90;;;;;;5107725;28;20490;-89
2023/08/20 08:51:01;;;;;;;0.10;0.00;;;21.10;99.90;;;;;;5109168;28;20577;-90
2023/08/20 08:53:27;;;;;;;0.10;0.10;;;21.40;99.90;;;;;;5108243;28;20445;-90
2023/08/20 08:55:53;;;;;;;0.00;0.00;;;21.80;99.90;;;;;;5105264;28;20457;-88
2023/08/20 08:58:18;;;;;;;0.10;0.00;;;21.90;99.90;;;;;;5076543;28;20189;-88
2023/08/20 09:00:44;;;;;;;0.10;0.00;;;22.00;99.90;;;;;;5098965;28;20204;-88
2023/08/20 09:03:09;;;;;;;0.00;0.00;;;22.00;99.90;;;;;;5098762;28;20180;-88
2023/08/20 09:05:55;;;;;;;0.10;0.00;;;22.40;99.90;;;;;;5077512;28;20723;-88
2023/08/20 09:08:28;;;;;;;0.07;0.00;;;22.60;99.90;;;;;;5099668;28;20188;-88
2023/08/20 09:10:55;;;;;;;0.10;0.00;;;22.40;99.90;;;;;;5093614;28;20540;-88
2023/08/20 09:13:38;;;;;;;0.10;0.00;;;22.40;99.90;;;;;;5096948;28;20445;-88
2023/08/20 09:16:08;;;;;;;0.00;0.00;;;22.60;99.90;;;;;;5098814;28;20438;-89
2023/08/20 09:18:42;;;;;;;0.07;0.00;;;22.50;99.90;;;;;;5096112;28;20448;-90
2023/08/20 09:21:09;;;;;;;0.07;0.00;;;22.50;99.90;;;;;;5104455;28;21417;-90
2023/08/20 09:23:35;;;;;;;0.00;0.00;;;22.90;99.90;;;;;;5107925;28;20528;-90
2023/08/20 09:26:05;;;;;;;0.10;0.00;;;22.90;99.90;;;;;;5090776;28;20554;-88
2023/08/20 09:28:45;;;;;;;0.07;0.00;;;23.20;99.90;;;;;;5102675;28;20446;-88
2023/08/20 09:31:12;;;;;;;0.10;0.00;;;23.10;99.90;;;;;;5107235;28;20976;-88
2023/08/20 09:33:49;;;;;;;0.10;0.00;;;23.00;99.90;;;;;;5104643;28;21085;-89
2023/08/20 09:36:15;;;;;;;0.10;0.00;;;23.60;99.90;;;;;;5097907;27;20461;-88
2023/08/20 09:38:40;;;;;;;0.07;0.00;;;23.10;99.90;;;;;;5104331;28;20469;-87
2023/08/20 09:41:08;;;;;;;0.00;0.00;;;22.50;99.90;;;;;;5102129;28;20534;-88
2023/08/20 09:43:38;;;;;;;0.10;0.00;;;22.20;99.90;;;;;;5108746;27;20185;-88
2023/08/20 09:46:05;;;;;;;0.10;0.00;;;23.10;99.90;;;;;;5115432;27;20429;-88
2023/08/20 09:48:35;;;;;;;0.10;0.00;;;23.70;99.90;;;;;;5097629;27;20474;-89
2023/08/20 09:51:05;;;;;;;0.10;0.00;;;24.20;99.90;;;;;;5114265;27;20473;-88
2023/08/20 09:53:37;;;;;;;0.00;0.00;;;24.00;99.90;;;;;;5093022;28;20414;-86
2023/08/20 09:56:36;;;;;;;0.10;0.00;;;24.40;99.90;;;;;;5110120;27;20448;-88
2023/08/20 09:59:02;;;;;;;0.10;0.00;;;24.40;99.90;;;;;;5092383;27;20482;-89
2023/08/20 10:01:28;;;;;;;0.10;0.00;;;24.60;99.90;;;;;;5102094;27;20453;-90
2023/08/20 10:03:54;;;;;;;0.10;0.00;;;24.80;99.90;;;;;;5100052;27;20435;-88
2023/08/20 10:06:20;;;;;;;0.00;0.00;;;25.00;99.90;;;;;;5092723;27;20655;-89
2023/08/20 10:08:46;;;;;;;0.10;0.00;;;24.80;99.90;;;;;;5107408;28;20790;-90
2023/08/20 10:11:12;;;;;;;0.10;0.00;;;24.50;99.90;;;;;;5100818;28;20922;-87
2023/08/20 10:13:38;;;;;;;0.10;0.00;;;25.00;99.90;;;;;;5095966;28;20462;-88
2023/08/20 10:16:04;;;;;;;0.10;0.00;;;25.00;99.90;;;;;;5100325;28;20520;-88
2023/08/20 10:18:30;;;;;;;0.10;0.00;;;25.40;99.90;;;;;;5095280;27;20439;-88
2023/08/20 10:20:59;;;;;;;0.10;0.00;;;25.60;99.90;;;;;;5105512;27;20237;-87
2023/08/20 10:23:24;;;;;;;0.10;0.00;;;25.60;99.90;;;;;;5125363;27;20186;-89
2023/08/20 10:25:52;;;;;;;0.10;0.00;;;24.90;99.90;;;;;;5093729;28;20848;-92
2023/08/20 10:28:22;;;;;;;0.10;0.00;;;24.40;99.90;;;;;;5109332;28;20172;-91
2023/08/20 10:31:08;;;;;;;0.10;0.00;;;24.50;99.90;;;;;;5109199;28;21226;-91
2023/08/20 10:33:38;;;;;;;0.10;0.00;;;24.00;99.90;;;;;;5109295;28;20517;-90
2023/08/20 10:36:15;;;;;;;0.10;0.00;;;23.70;99.90;;;;;;5111232;28;20425;-89
2023/08/20 10:38:40;;;;;;;0.10;0.00;;;23.30;99.90;;;;;;5117665;27;20436;-91
2023/08/20 10:41:10;;;;;;;0.10;0.00;;;23.70;99.90;;;;;;5132993;27;20980;-89
2023/08/20 10:43:38;;;;;;;0.10;0.00;;;25.00;99.90;;;;;;5118014;27;20184;-92
2023/08/20 10:46:23;;;;;;;0.10;0.00;;;25.70;99.90;;;;;;5107391;27;20440;-90
2023/08/20 10:49:01;;;;;;;0.10;0.00;;;26.20;99.90;;;;;;5112026;27;20460;-92
2023/08/20 10:51:28;;;;;;;0.00;0.00;;;26.80;99.90;;;;;;5115451;27;20588;-89
2023/08/20 10:54:05;;;;;;;0.10;0.00;;;27.40;99.90;;;;;;5113057;27;20430;-89
2023/08/20 10:56:44;;;;;;;0.10;0.00;;;26.90;99.90;;;;;;5112343;27;20970;-88
2023/08/20 10:59:21;;;;;;;0.10;0.00;;;27.10;99.90;;;;;;5107049;27;20544;-90
2023/08/20 11:01:50;;;;;;;0.07;0.00;;;27.30;99.90;;;;;;5106334;28;20548;-88
2023/08/20 11:04:18;;;;;;;0.10;0.00;;;27.20;99.90;;;;;;5091988;27;20442;-90
2023/08/20 11:06:45;;;;;;;0.10;0.00;;;27.40;99.90;;;;;;5111124;27;20529;-87
2023/08/20 11:09:11;;;;;;;0.10;0.00;;;27.30;99.90;;;;;;5111362;28;20453;-89
2023/08/20 11:11:42;;;;;;;0.10;0.00;;;27.20;99.90;;;;;;5112768;27;20481;-88
2023/08/20 11:14:15;;;;;;;0.10;0.00;;;27.70;99.90;;;;;;5111974;27;20192;-87
2023/08/20 11:16:44;;;;;;;0.10;0.00;;;28.40;99.90;;;;;;5110342;27;20485;-89
2023/08/20 11:19:10;;;;;;;0.10;0.00;;;28.20;99.90;;;;;;5112564;28;20440;-90
2023/08/20 11:21:37;;;;;;;0.10;0.00;;;28.60;99.90;;;;;;5105325;27;20438;-84
2023/08/20 11:24:03;;;;;;;0.10;0.00;;;28.60;99.90;;;;;;5084895;28;20200;-87
2023/08/20 11:26:30;;;;;;;0.07;0.00;;;28.60;99.90;;;;;;5099378;27;20458;-91
2023/08/20 11:28:55;;;;;;;0.10;0.00;;;28.40;99.90;;;;;;5086273;28;20602;-89
2023/08/20 11:31:21;;;;;;;0.10;0.00;;;28.40;99.90;;;;;;5084049;28;20486;-89
2023/08/20 11:33:48;;;;;;;0.10;0.00;;;29.20;99.90;;;;;;5105344;28;20192;-88
2023/08/20 11:36:16;;;;;;;0.10;0.00;;;28.80;99.90;;;;;;5108278;27;20591;-91
2023/08/20 11:38:42;;;;;;;0.10;0.00;;;29.60;99.90;;;;;;5115257;27;20438;-87
2023/08/20 11:41:08;;;;;;;0.10;0.00;;;29.50;99.90;;;;;;5101954;27;20444;-86
2023/08/20 11:43:34;;;;;;;0.07;0.00;;;28.90;99.90;;;;;;5106811;28;20199;-91
2023/08/20 11:45:59;;;;;;;0.10;0.00;;;28.90;99.90;;;;;;5091367;28;20192;-89
2023/08/20 11:48:25;;;;;;;0.10;0.00;;;28.80;99.90;;;;;;5107460;27;20257;-88
2023/08/20 11:50:51;;;;;;;0.10;0.00;;;29.00;99.90;;;;;;5106588;28;20319;-88
2023/08/20 11:53:23;;;;;;;0.10;0.03;;;29.80;99.90;;;;;;5109405;27;20176;-87
2023/08/20 11:55:48;;;;;;;0.10;0.00;;;29.70;99.90;;;;;;5099986;28;20184;-88
2023/08/20 11:58:14;;;;;;;0.10;0.00;;;30.30;99.90;;;;;;5105964;28;21052;-90
2023/08/20 12:00:40;;;;;;;0.10;0.00;;;30.70;99.90;;;;;;5110577;27;20184;-86
2023/08/20 12:03:07;;;;;;;0.10;0.00;;;31.00;99.90;;;;;;5101008;28;20192;-86
2023/08/20 12:05:33;;;;;;;0.10;0.00;;;30.60;99.90;;;;;;5104943;28;20328;-88
2023/08/20 12:08:03;;;;;;;0.10;0.00;;;30.70;99.90;;;;;;5089512;28;20540;-87
2023/08/20 12:10:31;;;;;;;0.10;0.00;;;30.30;99.90;;;;;;5102487;28;20213;-88
2023/08/20 12:12:58;;;;;;;0.10;0.00;;;31.40;99.90;;;;;;5105023;28;20993;-91
2023/08/20 12:15:24;;;;;;;0.10;0.00;;;31.70;99.90;;;;;;5094023;28;20451;-89
2023/08/20 12:17:58;;;;;;;0.10;0.00;;;31.60;99.90;;;;;;5090152;27;20442;-90
2023/08/20 12:20:26;;;;;;;0.10;0.00;;;31.50;99.90;;;;;;5092297;28;20454;-86
2023/08/20 12:22:51;;;;;;;0.03;0.00;;;31.50;99.90;;;;;;5106387;28;20595;-87
2023/08/20 12:25:17;;;;;;;0.10;0.00;;;31.20;99.90;;;;;;5097294;28;20442;-89
2023/08/20 12:27:43;;;;;;;0.10;0.00;;;31.60;99.90;;;;;;5108166;28;20188;-90
2023/08/20 12:30:09;;;;;;;0.10;0.00;;;31.20;99.90;;;;;;5107633;28;20259;-90
2023/08/20 12:32:34;;;;;;;0.07;0.00;;;31.50;99.90;;;;;;5109956;28;20283;-88
2023/08/20 12:35:00;;;;;;;0.10;0.00;;;32.10;99.90;;;;;;5103293;28;20530;-85
2023/08/20 12:37:25;;;;;;;0.10;0.00;;;31.50;99.90;;;;;;5107922;28;20187;-86
2023/08/20 12:39:51;;;;;;;0.10;0.00;;;31.60;99.90;;;;;;5106372;28;20659;-89
2023/08/20 12:42:16;;;;;;;0.10;0.00;;;31.20;99.90;;;;;;5102254;28;20240;-86
2023/08/20 12:44:42;;;;;;;0.10;0.00;;;30.30;99.90;;;;;;5092568;28;20180;-87
2023/08/20 12:47:07;;;;;;;0.10;0.00;;;28.70;99.90;;;;;;5096815;28;20188;-88